Tiempo atmosférico en la estación meteorológica de Alberca de Zancara, Cuenca (805 m.)



Fecha
DESCASC
Temp. máxima en grados centígrados (hora)
DESCASC
Temp. mínima en grados centígrados (hora)
DESCASC
Temp. media en grados centígrados
DESCASC
Racha de viento máxima en m/sg (hora)
DESCASC
Velocidad máxima media en intervalos de 10 minutos(hora)
DESCASC
Precipitaciones diarias en mm
DESCASC
Precipitaciones de 00:00 a 06:00 en mm
DESCASC
Precipitaciones de 06:00 a 12:00 en mm
DESCASC
Precipitaciones de 12:00 a 18:00 en mm
DESCASC
Precipitaciones de 18:00 a 24:00 en mm
DESCASC
28-02-2021 13 (16:20) 3.6 (03:10) 8.3 12.22 (12:50) 6.11 (13:30) 0 0 0 0 0
27-02-2021 16.8 (16:40) 1.9 (08:00) 9.3 7.5 (13:30) 3.61 (07:00) 0 0 0 0 0
26-02-2021 14.6 (15:00) 5.3 (23:20) 10 8.06 (12:40) 3.61 (03:00) 0 0 0 0 0
25-02-2021 14.3 (16:00) 5.4 (00:00) 9.9 9.44 (17:20) 4.17 (17:20) 0 0 0 0 0
24-02-2021 14.6 (17:00) 3.9 (00:00) 9.3 9.17 (10:20) 4.44 (14:50) 0 0 0 0 0
23-02-2021 13.4 (16:20) 1.5 (00:00) 7.4 7.22 (13:30) 3.61 (13:40) 0 0 0 0 0
22-02-2021 7.9 (17:50) 3.4 (00:00) 5.7 10.83 (05:20) 7.78 (11:00) 0 0 0 0 0
21-02-2021 10.5 (16:30) 5.7 (00:00) 8.1 10.28 (01:20) 6.39 (21:20) 0.6 0 0 0 0.6
20-02-2021 20.8 (16:10) 4.4 (00:00) 12.6 8.89 (22:40) 4.44 (17:50) 0 0 0 0 0
19-02-2021 18.6 (15:40) 1 (00:00) 9.8 8.33 (15:50) 4.72 (15:50) 0 0 0 0 0
18-02-2021 17.2 (16:00) 1.5 (00:00) 9.4 8.06 (15:10) 5 (14:40) 0 0 0 0 0
17-02-2021 18.6 (16:30) 1.5 (00:00) 10.1 6.11 (16:30) 3.33 (17:00) 0 0 0 0 0
16-02-2021 15.8 (16:10) 2.1 (00:00) 9 5.56 (00:20) 3.61 (15:30) 0 0 0 0 0
15-02-2021 13.8 (16:00) 5.1 (00:00) 9.5 7.78 (11:10) 4.17 (10:40) 0 0 0 0 0
14-02-2021 15.3 (16:10) 2.8 (00:00) 9.1 8.06 (13:00) 3.61 (12:40) 0 0 0 0 0
13-02-2021 14.1 (16:10) 2 (00:00) 8.1 7.78 (13:30) 5 (13:00) 0 0 0 0 0
12-02-2021 12.8 (15:30) 6.9 (00:00) 9.9 12.22 (11:10) 8.06 (11:10) 0.4 0 0.4 0 0
11-02-2021 13.8 (16:50) 3.7 (00:00) 8.8 6.11 (12:30) 4.17 (12:40) 0 0 0 0 0
10-02-2021 12.7 (16:20) 4.9 (00:00) 8.8 15.56 (04:40) 10.56 (04:30) 0 0 0 0 0
09-02-2021 9.8 (14:20) 4.6 (00:00) 7.2 17.5 (14:20) 10.28 (14:30) 0.6 0 0 0.6 0
08-02-2021 8.5 (17:30) 4.4 (00:00) 6.5 18.33 (07:50) 10.83 (07:50) 0 0 0 0 0
07-02-2021 9.8 (16:20) 4.2 (00:00) 7 12.5 (18:10) 8.61 (18:10) 0 0 0 0 0
06-02-2021 8.5 (11:30) 6.1 (00:00) 7.3 10.83 (12:10) 6.39 (13:30) 0 0 0 0 0
05-02-2021 14.9 (15:10) 5.9 (00:00) 10.4 10.28 (12:40) 4.72 (17:30) 1.2 0 0 0 1.2
04-02-2021 17.1 (15:50) 4.4 (00:00) 10.8 10.83 (13:50) 4.44 (14:20) 0 0 0 0 0
03-02-2021 13.4 (15:30) 6.4 (00:00) 9.9 6.67 (00:10) 4.44 (00:10) 0 0 0 0 0
02-02-2021 12.4 (16:50) 6.1 (00:00) 9.2 8.89 (00:10) 6.11 (00:10) 0 0 0 0 0
01-02-2021 13.3 (15:00) 6.7 (00:00) 10 13.89 (14:50) 9.72 (15:50) 0 0 0 0 0

Gráficas

Temp. máximas Temp. mínimas Temp. medias Precipitaciones Rachas de viento máximas Velocidades máximas media en intervalos de 10 minutos

Datos horarios

Fecha y hora oficial Temperatura (ºC) Velocidad del viento (km/h) Dirección del viento Racha (km/h) Dirección de racha Precipitación (mm) Presión (hPa) Tendencia (hPa) Humedad (%)
2021-03-02 23:00:00 7.3 5 Este 16 Sudeste 0 -- -- 94
2021-03-02 22:00:00 7.6 6 Este 16 Este 0 -- -- 92
2021-03-02 21:00:00 8 9 Este 20 Este 0 -- -- 92
2021-03-02 20:00:00 8.2 6 Este 17 Este 0 -- -- 90
2021-03-02 19:00:00 9 6 Este 20 Este 0 -- -- 86
2021-03-02 18:00:00 9.8 8 Este 23 Este 0 -- -- 83
2021-03-02 17:00:00 9.8 8 Este 21 Este 0 -- -- 83
2021-03-02 16:00:00 9.6 10 Sudeste 23 Sudeste 0 -- -- 84
2021-03-02 15:00:00 10.2 11 Sudeste 23 Sudeste 0 -- -- 79
2021-03-02 14:00:00 10.2 9 Sudeste 19 Sudeste 0 -- -- 77
2021-03-02 13:00:00 9.6 8 Sudeste 21 Sudeste 0 -- -- 80
2021-03-02 12:00:00 9.1 8 Sudeste 22 Sudeste 0 -- -- 83
2021-03-02 11:00:00 8.7 8 Sudeste 21 Sudeste 0 -- -- 84
2021-03-02 10:00:00 8.3 8 Sudeste 21 Este 0 -- -- 85
2021-03-02 09:00:00 7.5 7 Este 17 Nordeste 0 -- -- 88
2021-03-02 08:00:00 7.1 6 Este 18 Este 0 -- -- 90
2021-03-02 07:00:00 7 6 Este 17 Este 0 -- -- 91
2021-03-02 06:00:00 7 8 Este 16 Este 0 -- -- 91
2021-03-02 05:00:00 6.7 6 Este 19 Sudeste 0 -- -- 92
2021-03-02 04:00:00 6.8 7 Este 21 Este 0 -- -- 91
2021-03-02 03:00:00 6.9 8 Este 20 Sudeste 0 -- -- 90
2021-03-02 02:00:00 6.8 9 Este 23 Sudeste 0 -- -- 90
2021-03-02 01:00:00 7.1 9 Este 23 Sudeste 0 -- -- 90
2021-03-02 00:00:00 7 8 Este 24 Sudeste 0 -- -- 91
2021-03-01 23:00:00 7.1 11 Este 26 Este 0 -- -- 90
2021-03-01 22:00:00 7.2 11 Sudeste 28 Este 0 -- -- 89
2021-03-01 21:00:00 7.5 9 Sudeste 23 Sudeste 0 -- -- 88
2021-03-01 20:00:00 7.8 9 Sudeste 18 Este 0 -- -- 87
2021-03-01 19:00:00 8.4 9 Sudeste 24 Sudeste 0 -- -- 81
2021-03-01 18:00:00 9.1 11 Sudeste 33 Sudeste 0 -- -- 77
2021-03-01 17:00:00 9.4 15 Sudeste 39 Sudeste 0 -- -- 76
2021-03-01 16:00:00 9 13 Sudeste 37 Sudeste 0 -- -- 80
2021-03-01 15:00:00 8.7 16 Sudeste 34 Sudeste 0 -- -- 81
2021-03-01 14:00:00 8.4 14 Sudeste 33 Sudeste 0 -- -- 83
2021-03-01 13:00:00 8.1 15 Sudeste 32 Sudeste 0 -- -- 85
2021-03-01 12:00:00 7.9 14 Sudeste 28 Sudeste 0 -- -- 86
2021-03-01 11:00:00 7.6 13 Este 32 Este 0 -- -- 86
2021-03-01 10:00:00 7.2 13 Sudeste 30 Sudeste 0 -- -- 89
2021-03-01 09:00:00 6.8 11 Este 30 Este 0 -- -- 94
2021-03-01 08:00:00 6.8 14 Sudeste 32 Sudeste 0 -- -- 89
2021-03-01 07:00:00 6.7 12 Sudeste 30 Este 0 -- -- 89
2021-03-01 06:00:00 6.4 10 Este 25 Este 0 -- -- 90
2021-03-01 05:00:00 6.3 11 Este 24 Este 0 -- -- 89
2021-03-01 04:00:00 6.2 9 Este 24 Sudeste 0 -- -- 89
2021-03-01 03:00:00 6.2 10 Este 24 Nordeste 0 -- -- 88
2021-03-01 02:00:00 6.2 10 Sudeste 27 Sudeste 0 -- -- 88
2021-03-01 01:00:00 6 12 Sudeste 24 Sudeste 0 -- -- 86
2021-03-01 00:00:00 5.8 9 Este 26 Este 0 -- -- 84
2021-02-28 23:00:00 5.8 10 Este 28 Este 0 -- -- 85
2021-02-28 22:00:00 6.1 9 Este 21 Este 0 -- -- 82
2021-02-28 21:00:00 7 9 Sudeste 24 Sudeste 0 -- -- 81
2021-02-28 20:00:00 7.9 10 Sudeste 28 Sudeste 0 -- -- 79
2021-02-28 19:00:00 9.1 12 Sudeste 29 Sur 0 -- -- 72
2021-02-28 18:00:00 11.1 17 Sudeste 36 Sudeste 0 -- -- 60
2021-02-28 17:00:00 12.5 18 Sudeste 41 Sudeste 0 -- -- 56
2021-02-28 16:00:00 12.6 17 Sudeste 39 Sudeste 0 -- -- 54
2021-02-28 15:00:00 12.6 16 Sudeste 39 Sudeste 0 -- -- 53
2021-02-28 14:00:00 12 22 Sudeste 43 Sudeste 0 -- -- 55
2021-02-28 13:00:00 11.3 21 Sudeste 44 Sudeste 0 -- -- 57
2021-02-28 12:00:00 10.7 19 Sudeste 39 Sudeste 0 -- -- 62
2021-02-28 11:00:00 9.5 17 Sudeste 35 Sudeste 0 -- -- 70
2021-02-28 10:00:00 8.1 12 Sudeste 27 Sudeste 0 -- -- 76
2021-02-28 09:00:00 5.3 8 Sudeste 17 Sudeste 0 -- -- 83
2021-02-28 08:00:00 3.9 5 Este 14 Este 0 -- -- 87
2021-02-28 07:00:00 4.4 5 Sudeste 21 Sudeste 0 -- -- 85
2021-02-28 06:00:00 4.3 8 Sudeste 19 Sudeste 0 -- -- 89
2021-02-28 05:00:00 3.9 6 Sudeste 18 Sudeste 0 -- -- 92
2021-02-28 04:00:00 3.8 8 Este 20 Este 0 -- -- 91
2021-02-28 03:00:00 3.8 9 Este 25 Este 0 -- -- 90
2021-02-28 02:00:00 4.6 5 Este 13 Este 0 -- -- 79
2021-02-28 01:00:00 5.5 6 Este 14 Este 0 -- -- 75
2021-02-28 00:00:00 5.8 7 Sudeste 16 Este 0 -- -- 70
2021-02-27 23:00:00 6.8 4 Este 15 Este 0 -- -- 75
2021-02-27 22:00:00 7.6 5 Este 12 Este 0 -- -- 70
2021-02-27 21:00:00 8.6 8 Este 13 Este 0 -- -- 61
2021-02-27 20:00:00 10.2 4 Este 10 Sudeste 0 -- -- 52
2021-02-27 19:00:00 12.5 4 Sudeste 12 Sudeste 0 -- -- 46
2021-02-27 18:00:00 16.2 6 Sudeste 17 Sudeste 0 -- -- 38
2021-02-27 17:00:00 16.7 9 Sudeste 18 Sudeste 0 -- -- 35
2021-02-27 16:00:00 16.1 10 Sudeste 24 Sudeste 0 -- -- 33
2021-02-27 15:00:00 15.6 12 Sudeste 27 Sudeste 0 -- -- 38
2021-02-27 14:00:00 15.1 10 Sudeste 27 Sudeste 0 -- -- 46
2021-02-27 13:00:00 13.6 12 Sudeste 24 Sudeste 0 -- -- 54
2021-02-27 12:00:00 11.6 9 Sudeste 19 Sudeste 0 -- -- 67
2021-02-27 11:00:00 8.3 6 Este 15 Sudeste 0 -- -- 88
2021-02-27 10:00:00 4.5 5 Este 12 Este 0 -- -- 100
2021-02-27 09:00:00 2.2 7 Este 13 Nordeste 0 -- -- 99
2021-02-27 08:00:00 1.9 6 Este 19 Este 0 -- -- 99
2021-02-27 07:00:00 2.7 13 Este 21 Este 0 -- -- 99
2021-02-27 06:00:00 3.5 8 Este 15 Este 0 -- -- 99
2021-02-27 05:00:00 3.9 7 Este 17 Este 0 -- -- 99
2021-02-27 04:00:00 4 7 Este 18 Este 0 -- -- 98
2021-02-27 03:00:00 4.5 8 Este 18 Este 0 -- -- 98
2021-02-27 02:00:00 5 9 Este 18 Este 0 -- -- 97
2021-02-27 01:00:00 5.1 8 Este 21 Este 0 -- -- 95
2021-02-27 00:00:00 5.6 9 Este 17 Este 0 -- -- 91
2021-02-26 23:00:00 5.4 7 Nordeste 14 Nordeste 0 -- -- 90
2021-02-26 22:00:00 7.3 10 Este 14 Nordeste 0 -- -- 83
2021-02-26 21:00:00 7.9 4 Este 11 Sudeste 0 -- -- 79
2021-02-26 20:00:00 9.2 5 Este 12 Este 0 -- -- 72
2021-02-26 19:00:00 10.6 3 Este 18 Sudeste 0 -- -- 69
2021-02-26 18:00:00 12.2 6 Sudeste 23 Sudeste 0 -- -- 64
2021-02-26 17:00:00 13.4 9 Sudeste 24 Este 0 -- -- 59
2021-02-26 16:00:00 13.6 8 Este 24 Sudeste 0 -- -- 60
2021-02-26 15:00:00 14.6 11 Este 24 Este 0 -- -- 60
2021-02-26 14:00:00 12.5 11 Sudeste 26 Sudeste 0 -- -- 66
2021-02-26 13:00:00 12.1 12 Sudeste 29 Sudeste 0 -- -- 67
2021-02-26 12:00:00 10.6 9 Sudeste 23 Sudeste 0 -- -- 75
2021-02-26 11:00:00 9.1 12 Sudeste 26 Sudeste 0 -- -- 79
2021-02-26 10:00:00 7.6 9 Sudeste 25 Este 0 -- -- 87
2021-02-26 09:00:00 6.8 10 Sudeste 26 Este 0 -- -- 90
2021-02-26 08:00:00 6.4 9 Sudeste 25 Sudeste 0 -- -- 91
2021-02-26 07:00:00 6 7 Este 18 Este 0 -- -- 93
2021-02-26 06:00:00 6 6 Este 19 Este 0 -- -- 93
2021-02-26 05:00:00 6.1 7 Este 22 Este 0 -- -- 93
2021-02-26 04:00:00 6.4 10 Este 22 Nordeste 0 -- -- 94
2021-02-26 03:00:00 6.6 13 Este 22 Nordeste 0 -- -- 94
2021-02-26 02:00:00 6.7 7 Este 19 Este 0 -- -- 95
2021-02-26 01:00:00 6.9 6 Este 15 Este 0 -- -- 94
2021-02-26 00:00:00 7.7 5 Este 22 Sudeste 0 -- -- 93
2021-02-25 23:00:00 8 8 Este 20 Este 0 -- -- 93
2021-02-25 22:00:00 8.6 7 Este 20 Este 0 -- -- 89
2021-02-25 21:00:00 9.5 10 Sudeste 19 Sudeste 0 -- -- 86
2021-02-25 20:00:00 9.8 5 Este 19 Sudeste 0 -- -- 79
2021-02-25 19:00:00 11.5 10 Sudeste 26 Sudeste 0 -- -- 71
2021-02-25 18:00:00 12.9 13 Sudeste 34 Sudeste 0 -- -- 64
2021-02-25 17:00:00 13.6 14 Sudeste 30 Sudeste 0 -- -- 60
2021-02-25 16:00:00 14.3 15 Sudeste 32 Sudeste 0 -- -- 62
2021-02-25 15:00:00 13.5 11 Sudeste 27 Sudeste 0 -- -- 69
2021-02-25 14:00:00 11.8 12 Sudeste 26 Este 0 -- -- 75
2021-02-25 13:00:00 10.4 12 Sudeste 30 Este 0 -- -- 79
2021-02-25 12:00:00 9.9 12 Sudeste 27 Sudeste 0 -- -- 80
2021-02-25 11:00:00 8.9 12 Sudeste 24 Sudeste 0 -- -- 83
2021-02-25 10:00:00 7.5 10 Sudeste 24 Este 0 -- -- 88
2021-02-25 09:00:00 6.4 8 Sudeste 21 Este 0 -- -- 91
2021-02-25 08:00:00 5.5 8 Este 19 Este 0 -- -- 92
2021-02-25 07:00:00 5.7 8 Sudeste 21 Este 0 -- -- 91
2021-02-25 06:00:00 5.5 6 Sudeste 16 Sudeste 0 -- -- 93
2021-02-25 05:00:00 5.8 4 Este 15 Este 0 -- -- 91
2021-02-25 04:00:00 5.9 5 Sudeste 16 Este 0 -- -- 93
2021-02-25 03:00:00 6.1 7 Sudeste 24 Sudeste 0 -- -- 92
2021-02-25 02:00:00 6.6 6 Sudeste 21 Sudeste 0 -- -- 93
2021-02-25 01:00:00 7.4 9 Sudeste 23 Este 0 -- -- 93
2021-02-25 00:00:00 6.6 6 Sudeste 15 Sudeste 0 -- -- 95
2021-02-24 23:00:00 6.2 4 Este 13 Este 0 -- -- 92
2021-02-24 22:00:00 6.9 6 Este 12 Este 0 -- -- 90
2021-02-24 21:00:00 7.5 4 Este 10 Sudeste 0 -- -- 85
2021-02-24 20:00:00 8.6 5 Este 12 Sudeste 0 -- -- 82
2021-02-24 19:00:00 10.6 6 Sudeste 20 Sudeste 0 -- -- 76
2021-02-24 18:00:00 12.8 9 Sudeste 26 Sudeste 0 -- -- 69
2021-02-24 17:00:00 14.6 12 Sudeste 30 Sudeste 0 -- -- 62
2021-02-24 16:00:00 13.6 15 Sudeste 26 Sudeste 0 -- -- 67
2021-02-24 15:00:00 13.4 14 Sudeste 30 Sudeste 0 -- -- 68
2021-02-24 14:00:00 12.5 15 Sudeste 32 Sudeste 0 -- -- 71
2021-02-24 13:00:00 11.2 14 Sudeste 31 Sudeste 0 -- -- 75
2021-02-24 12:00:00 9.9 15 Sudeste 28 Sudeste 0 -- -- 81
2021-02-24 11:00:00 8.6 14 Sudeste 33 Sudeste 0 -- -- 86
2021-02-24 10:00:00 7.9 12 Sudeste 29 Sudeste 0 -- -- 93
2021-02-24 09:00:00 6.9 9 Sudeste 23 Este 0 -- -- 97
2021-02-24 08:00:00 6.3 8 Sudeste 19 Este 0 -- -- 98
2021-02-24 07:00:00 5.3 6 Sudeste 17 Sudeste 0 -- -- 98
2021-02-24 06:00:00 4.1 5 Este 14 Sudeste 0 -- -- 97
2021-02-24 05:00:00 4.4 5 Este 14 Sudeste 0 -- -- 96
2021-02-24 04:00:00 4.4 4 Este 17 Sudeste 0 -- -- 96
2021-02-24 03:00:00 4.8 8 Este 17 Sudeste 0 -- -- 95
2021-02-24 02:00:00 4.9 5 Este 14 Este 0 -- -- 93
2021-02-24 01:00:00 5.2 6 Este 14 Este 0 -- -- 92
2021-02-24 00:00:00 5.5 5 Sudeste 11 Este 0 -- -- 90
2021-02-23 23:00:00 6.1 6 Sudeste 14 Sudeste 0 -- -- 87
2021-02-23 22:00:00 5.9 5 Este 9 Este 0 -- -- 84
2021-02-23 21:00:00 6.5 3 Este 10 Este 0 -- -- 83
2021-02-23 20:00:00 7.7 3 Sudeste 9 Este 0 -- -- 79
2021-02-23 19:00:00 9.6 5 Este 16 Sudeste 0 -- -- 71
2021-02-23 18:00:00 11.9 8 Sudeste 19 Este 0 -- -- 61
2021-02-23 17:00:00 12.4 10 Sudeste 22 Sudeste 0 -- -- 59
2021-02-23 16:00:00 12.2 7 Sudeste 22 Sudeste 0 -- -- 62
2021-02-23 15:00:00 12.3 10 Sudeste 24 Este 0 -- -- 63
2021-02-23 14:00:00 11.3 10 Sudeste 26 Sudeste 0 -- -- 64
2021-02-23 13:00:00 11.2 9 Sudeste 24 Sudeste 0 -- -- 68
2021-02-23 12:00:00 10.1 8 Sudeste 22 Sudeste 0 -- -- 72
2021-02-23 11:00:00 8.6 9 Sudeste 21 Sudeste 0 -- -- 77
2021-02-23 10:00:00 5.9 4 Este 10 Este 0 -- -- 89
2021-02-23 09:00:00 3.1 3 Nordeste 5 Nordeste 0 -- -- 98
2021-02-23 08:00:00 1.5 0 Calma 3 Nordeste 0 -- -- 95
2021-02-23 07:00:00 2.4 2 Nordeste 4 Este 0 -- -- 95
2021-02-23 06:00:00 3.3 2 Norte 5 Este 0 -- -- 93
2021-02-23 05:00:00 4 3 Este 5 Este 0 -- -- 93
2021-02-23 04:00:00 4.9 0 Calma 6 Nordeste 0 -- -- 88
2021-02-23 03:00:00 5.3 0 Calma 5 Norte 0 -- -- 88
2021-02-23 02:00:00 5.6 3 Norte 9 Norte 0 -- -- 87
2021-02-23 01:00:00 5.6 5 Norte 10 Norte 0 -- -- 87
2021-02-23 00:00:00 5.5 2 Norte 7 Norte 0 -- -- 87
2021-02-22 23:00:00 5.7 3 Nordeste 9 Nordeste 0 -- -- 86
2021-02-22 22:00:00 5.7 4 Norte 12 Norte 0 -- -- 86
2021-02-22 21:00:00 5.8 5 Norte 9 Norte 0 -- -- 87
2021-02-22 20:00:00 6.5 4 Nordeste 15 Norte 0 -- -- 84
2021-02-22 19:00:00 7.1 11 Norte 21 Norte 0 -- -- 75
2021-02-22 18:00:00 7.9 9 Noroeste 23 Noroeste 0 -- -- 72
2021-02-22 17:00:00 7.5 14 Noroeste 22 Noroeste 0 -- -- 76
2021-02-22 16:00:00 7.5 14 Noroeste 24 Oeste 0 -- -- 77
2021-02-22 15:00:00 6.8 10 Noroeste 27 Oeste 0 -- -- 77
2021-02-22 14:00:00 6.6 17 Oeste 32 Oeste 0 -- -- 80
2021-02-22 13:00:00 6.1 15 Noroeste 33 Oeste 0 -- -- 85
2021-02-22 12:00:00 5.2 17 Noroeste 35 Noroeste 0 -- -- 87
2021-02-22 11:00:00 5.5 28 Oeste 38 Oeste 0 -- -- 93
2021-02-22 10:00:00 3.8 20 Oeste 29 Oeste 0 -- -- 98
2021-02-22 09:00:00 3.4 17 Oeste 28 Oeste 0 -- -- 98
2021-02-22 08:00:00 3.6 18 Oeste 30 Oeste 0 -- -- 98
2021-02-22 07:00:00 4.1 19 Oeste 32 Oeste 0 -- -- 97
2021-02-22 06:00:00 4.5 20 Oeste 39 Oeste 0 -- -- 97
2021-02-22 05:00:00 4.6 23 Oeste 35 Oeste 0 -- -- 97
2021-02-22 04:00:00 4.5 17 Oeste 33 Oeste 0 -- -- 96
2021-02-22 03:00:00 4.2 14 Oeste 25 Noroeste 0 -- -- 96
2021-02-22 02:00:00 4.6 19 Oeste 32 Oeste 0 -- -- 96
2021-02-22 01:00:00 5 20 Oeste 35 Oeste 0 -- -- 96
2021-02-22 00:00:00 5.8 21 Oeste 34 Oeste 0 -- -- 97
2021-02-21 23:00:00 6.1 19 Oeste 32 Oeste 0 -- -- 96
2021-02-21 22:00:00 6.8 19 Oeste 35 Oeste 0 -- -- 94
2021-02-21 21:00:00 7.6 14 Sudoeste 32 Sudoeste 0.6 -- -- 95
2021-02-21 20:00:00 9.2 9 Sudeste 22 Sudeste 0 -- -- 88
2021-02-21 19:00:00 9.4 11 Sudeste 27 Sudeste 0 -- -- 86
2021-02-21 18:00:00 9.8 11 Sudeste 29 Este 0 -- -- 82
2021-02-21 17:00:00 10.3 12 Sudeste 30 Sudeste 0 -- -- 78
2021-02-21 16:00:00 10.1 14 Sudeste 26 Sudeste 0 -- -- 78
2021-02-21 15:00:00 9.2 12 Sudeste 25 Sudeste 0 -- -- 82
2021-02-21 14:00:00 8.6 9 Sudeste 28 Sudeste 0 -- -- 86
2021-02-21 13:00:00 8.5 12 Sudeste 30 Sudeste 0 -- -- 87
2021-02-21 12:00:00 8.1 13 Sudeste 31 Este 0 -- -- 88
2021-02-21 11:00:00 7.1 12 Sudeste 30 Sudeste 0 -- -- 91
2021-02-21 10:00:00 6.6 12 Sudeste 29 Sudeste 0 -- -- 92
2021-02-21 09:00:00 6.6 11 Sudeste 26 Este 0 -- -- 92
2021-02-21 08:00:00 6.8 12 Este 24 Este 0 -- -- 90
2021-02-21 07:00:00 6.6 8 Este 19 Este 0 -- -- 90
2021-02-21 06:00:00 6.6 8 Este 21 Este 0 -- -- 91
2021-02-21 05:00:00 6.6 8 Este 26 Este 0 -- -- 90
2021-02-21 04:00:00 6.6 9 Este 23 Este 0 -- -- 90
2021-02-21 03:00:00 6.6 10 Sudeste 31 Sudeste 0 -- -- 90
2021-02-21 02:00:00 6.5 13 Sudeste 37 Sudeste 0 -- -- 90
2021-02-21 01:00:00 6.5 14 Este 31 Este 0 -- -- 89
2021-02-21 00:00:00 6.6 9 Este 26 Este 0 -- -- 88
2021-02-20 23:00:00 7.3 14 Sudeste 32 Este 0 -- -- 86
2021-02-20 22:00:00 7.6 13 Sudeste 26 Sudeste 0 -- -- 84
2021-02-20 21:00:00 9.1 12 Sudeste 25 Este 0 -- -- 75
2021-02-20 20:00:00 12.4 12 Sudeste 30 Sudeste 0 -- -- 55
2021-02-20 19:00:00 14.3 14 Sudeste 27 Sudoeste 0 -- -- 40
2021-02-20 18:00:00 17.2 12 Sur 28 Sur 0 -- -- 32
2021-02-20 17:00:00 19.3 15 Sudeste 31 Sur 0 -- -- 28
2021-02-20 16:00:00 20.3 8 Sudoeste 18 Sudoeste 0 -- -- 21
2021-02-20 15:00:00 18.9 10 Sudoeste 25 Sudeste 0 -- -- 28
2021-02-20 14:00:00 17.7 10 Sudeste 26 Sudeste 0 -- -- 32
2021-02-20 13:00:00 17.5 11 Sudeste 22 Sudeste 0 -- -- 35
2021-02-20 12:00:00 15.2 10 Sudeste 21 Sudeste 0 -- -- 39
2021-02-20 11:00:00 11.7 6 Sudeste 18 Este 0 -- -- 53
2021-02-20 10:00:00 8.3 8 Este 13 Nordeste 0 -- -- 67
2021-02-20 09:00:00 5 5 Nordeste 15 Este 0 -- -- 78
2021-02-20 08:00:00 4.8 6 Nordeste 16 Este 0 -- -- 79
2021-02-20 07:00:00 5.2 10 Este 17 Este 0 -- -- 79
2021-02-20 06:00:00 4.7 8 Nordeste 14 Nordeste 0 -- -- 82
2021-02-20 05:00:00 4.6 7 Nordeste 12 Nordeste 0 -- -- 84
2021-02-20 04:00:00 5.2 7 Nordeste 12 Nordeste 0 -- -- 83
2021-02-20 03:00:00 5.8 6 Nordeste 10 Nordeste 0 -- -- 80
2021-02-20 02:00:00 5.7 4 Nordeste 10 Nordeste 0 -- -- 76
2021-02-20 01:00:00 5.2 4 Este 7 Este 0 -- -- 77
2021-02-20 00:00:00 6.4 0 Calma 9 Nordeste 0 -- -- 69
2021-02-19 23:00:00 6.1 4 Nordeste 7 Nordeste 0 -- -- 69
2021-02-19 22:00:00 5.8 0 Calma 4 Nordeste 0 -- -- 71
2021-02-19 21:00:00 7.4 0 Calma 2 Norte 0 -- -- 62
2021-02-19 20:00:00 9.9 0 Calma 6 Noroeste 0 -- -- 48
2021-02-19 19:00:00 13.9 3 Oeste 18 Oeste 0 -- -- 43
2021-02-19 18:00:00 17.8 9 Sudoeste 24 Oeste 0 -- -- 27
2021-02-19 17:00:00 18.6 13 Oeste 28 Oeste 0 -- -- 26
2021-02-19 16:00:00 18.6 15 Oeste 30 Oeste 0 -- -- 27
2021-02-19 15:00:00 18.3 8 Sudoeste 18 Sudoeste 0 -- -- 30
2021-02-19 14:00:00 17.7 8 Sudoeste 15 Sudoeste 0 -- -- 31
2021-02-19 13:00:00 16.7 5 Sur 13 Sudeste 0 -- -- 36
2021-02-19 12:00:00 15 6 Sur 14 Sudeste 0 -- -- 40
2021-02-19 11:00:00 10.7 3 Sudeste 8 Este 0 -- -- 65
2021-02-19 10:00:00 6 3 Este 7 Nordeste 0 -- -- 80
2021-02-19 09:00:00 2.7 0 Calma 5 Este 0 -- -- 88
2021-02-19 08:00:00 1.1 0 Calma 3 Este 0 -- -- 88
2021-02-19 07:00:00 1.6 2 Este 5 Nordeste 0 -- -- 89
2021-02-19 06:00:00 2 0 Calma 5 Norte 0 -- -- 86
2021-02-19 05:00:00 1.7 0 Calma 3 Este 0 -- -- 87
2021-02-19 04:00:00 2.6 0 Calma 5 Norte 0 -- -- 84
2021-02-19 03:00:00 3 0 Calma 2 Noroeste 0 -- -- 80
2021-02-19 02:00:00 5 0 Calma 3 Este 0 -- -- 72
2021-02-19 01:00:00 7.6 0 Calma 13 Norte 0 -- -- 61
2021-02-19 00:00:00 9 7 Norte 15 Norte 0 -- -- 56
2021-02-18 23:00:00 9.9 6 Noroeste 12 Norte 0 -- -- 54
2021-02-18 22:00:00 10.5 7 Noroeste 15 Noroeste 0 -- -- 52
2021-02-18 21:00:00 9.9 9 Oeste 13 Noroeste 0 -- -- 55
2021-02-18 20:00:00 11 9 Oeste 11 Oeste 0 -- -- 49
2021-02-18 19:00:00 12.8 3 Oeste 9 Sudoeste 0 -- -- 51
2021-02-18 18:00:00 16.2 6 Oeste 22 Oeste 0 -- -- 40
2021-02-18 17:00:00 16.8 12 Oeste 26 Oeste 0 -- -- 35
2021-02-18 16:00:00 17.2 14 Oeste 29 Oeste 0 -- -- 30
2021-02-18 15:00:00 16.8 15 Oeste 27 Oeste 0 -- -- 35
2021-02-18 14:00:00 16.4 13 Oeste 23 Oeste 0 -- -- 34
2021-02-18 13:00:00 14.3 6 Oeste 16 Oeste 0 -- -- 54
2021-02-18 12:00:00 13.6 4 Sudoeste 7 Sudeste 0 -- -- 59
2021-02-18 11:00:00 9.9 2 Sur 6 Nordeste 0 -- -- 70
2021-02-18 10:00:00 7.1 4 Nordeste 9 Este 0 -- -- 75
2021-02-18 09:00:00 2.4 0 Calma 5 Norte 0 -- -- 90
2021-02-18 08:00:00 1.6 0 Calma 2 Norte 0 -- -- 87
2021-02-18 07:00:00 2.6 0 Calma 4 Nordeste 0 -- -- 85
2021-02-18 06:00:00 3.2 2 Nordeste 3 Nordeste 0 -- -- 84
2021-02-18 05:00:00 3.6 0 Calma 8 Norte 0 -- -- 81
2021-02-18 04:00:00 4.2 3 Nordeste 7 Nordeste 0 -- -- 77
2021-02-18 03:00:00 4.2 0 Calma 7 Nordeste 0 -- -- 77
2021-02-18 02:00:00 5.2 0 Calma 9 Nordeste 0 -- -- 73
2021-02-18 01:00:00 4.4 4 Nordeste 10 Nordeste 0 -- -- 77
2021-02-18 00:00:00 4.9 0 Calma 4 Nordeste 0 -- -- 77
2021-02-17 23:00:00 6.5 0 Calma 4 Nordeste 0 -- -- 69
2021-02-17 22:00:00 8.3 0 Calma 6 Este 0 -- -- 63
2021-02-17 21:00:00 10.7 4 Este 12 Noroeste 0 -- -- 51
2021-02-17 20:00:00 10.8 3 Noroeste 9 Oeste 0 -- -- 54
2021-02-17 19:00:00 13.8 6 Noroeste 11 Oeste 0 -- -- 45
2021-02-17 18:00:00 17.6 5 Oeste 15 Oeste 0 -- -- 37
2021-02-17 17:00:00 18.3 12 Oeste 22 Oeste 0 -- -- 32
2021-02-17 16:00:00 18.4 10 Oeste 18 Oeste 0 -- -- 31
2021-02-17 15:00:00 17.5 10 Oeste 17 Oeste 0 -- -- 36
2021-02-17 14:00:00 17.1 6 Oeste 12 Sudoeste 0 -- -- 41
2021-02-17 13:00:00 16.4 4 Sur 10 Sudeste 0 -- -- 48
2021-02-17 12:00:00 13 3 Este 8 Sudeste 0 -- -- 65
2021-02-17 11:00:00 9.2 3 Este 8 Este 0 -- -- 77
2021-02-17 10:00:00 5.6 4 Este 10 Nordeste 0 -- -- 85
2021-02-17 09:00:00 2.4 3 Nordeste 6 Nordeste 0 -- -- 94
2021-02-17 08:00:00 1.6 0 Calma 6 Este 0 -- -- 91
2021-02-17 07:00:00 1.9 0 Calma 5 Nordeste 0 -- -- 91
2021-02-17 06:00:00 2 2 Nordeste 5 Nordeste 0 -- -- 92
2021-02-17 05:00:00 2.9 0 Calma 4 Norte 0 -- -- 88
2021-02-17 04:00:00 3.7 5 Norte 6 Norte 0 -- -- 88
2021-02-17 03:00:00 3.5 3 Nordeste 5 Norte 0 -- -- 90
2021-02-17 02:00:00 3 0 Calma 2 Norte 0 -- -- 88
2021-02-17 01:00:00 3.9 0 Calma 4 Norte 0 -- -- 86
2021-02-17 00:00:00 4.5 0 Calma 3 Noroeste 0 -- -- 85
2021-02-16 23:00:00 5.1 0 Calma 2 Nordeste 0 -- -- 84
2021-02-16 22:00:00 6.2 0 Calma 2 Nordeste 0 -- -- 80
2021-02-16 21:00:00 8 0 Calma 7 Oeste 0 -- -- 73
2021-02-16 20:00:00 9.9 3 Oeste 5 Oeste 0 -- -- 64
2021-02-16 19:00:00 11.8 4 Oeste 10 Oeste 0 -- -- 60
2021-02-16 18:00:00 14.8 6 Sudoeste 15 Oeste 0 -- -- 51
2021-02-16 17:00:00 15.8 9 Oeste 19 Oeste 0 -- -- 47
2021-02-16 16:00:00 15.6 10 Oeste 19 Oeste 0 -- -- 50
2021-02-16 15:00:00 14.8 8 Oeste 17 Oeste 0 -- -- 53
2021-02-16 14:00:00 13.4 9 Oeste 15 Noroeste 0 -- -- 63
2021-02-16 13:00:00 11.8 3 Sur 8 Nordeste 0 -- -- 69
2021-02-16 12:00:00 8.2 4 Este 11 Este 0 -- -- 84
2021-02-16 11:00:00 4.7 5 Este 11 Sudeste 0 -- -- 96
2021-02-16 10:00:00 3.8 5 Este 14 Este 0 -- -- 98
2021-02-16 09:00:00 3 5 Este 15 Este 0 -- -- 97
2021-02-16 08:00:00 2.6 10 Este 18 Nordeste 0 -- -- 94
2021-02-16 07:00:00 3.6 5 Este 14 Este 0 -- -- 97
2021-02-16 06:00:00 3.6 6 Sudeste 15 Este 0 -- -- 96
2021-02-16 05:00:00 3.5 7 Este 12 Este 0 -- -- 94
2021-02-16 04:00:00 4.6 5 Este 17 Este 0 -- -- 94
2021-02-16 03:00:00 4.7 6 Este 15 Nordeste 0 -- -- 94
2021-02-16 02:00:00 4.7 6 Este 18 Nordeste 0 -- -- 94
2021-02-16 01:00:00 4.8 6 Este 20 Nordeste 0 -- -- 93
2021-02-16 00:00:00 5.1 8 Nordeste 18 Este 0 -- -- 90
2021-02-15 23:00:00 6 6 Este 21 Este 0 -- -- 86
2021-02-15 22:00:00 6.7 8 Sudeste 21 Sudeste 0 -- -- 83
2021-02-15 21:00:00 7.4 5 Este 20 Sudeste 0 -- -- 81
2021-02-15 20:00:00 8.4 8 Sudeste 18 Sudeste 0 -- -- 76
2021-02-15 19:00:00 9.8 6 Sudeste 21 Este 0 -- -- 70
2021-02-15 18:00:00 12.4 10 Sudeste 27 Este 0 -- -- 61
2021-02-15 17:00:00 13.1 13 Sudeste 27 Sudeste 0 -- -- 59
2021-02-15 16:00:00 13.8 12 Sudeste 28 Sudeste 0 -- -- 57
2021-02-15 15:00:00 13.2 14 Sudeste 24 Sudeste 0 -- -- 59
2021-02-15 14:00:00 12.4 9 Sudeste 25 Sudeste 0 -- -- 65
2021-02-15 13:00:00 10.7 11 Sudeste 27 Sudeste 0 -- -- 70
2021-02-15 12:00:00 10.1 12 Sudeste 28 Sudeste 0 -- -- 74
2021-02-15 11:00:00 9.2 12 Sudeste 27 Sudeste 0 -- -- 80
2021-02-15 10:00:00 7.8 10 Sudeste 27 Sudeste 0 -- -- 89
2021-02-15 09:00:00 5.9 5 Este 15 Este 0 -- -- 95
2021-02-15 08:00:00 5.4 6 Este 12 Este 0 -- -- 95
2021-02-15 07:00:00 5.6 6 Este 14 Este 0 -- -- 94
2021-02-15 06:00:00 5.9 5 Este 14 Sudeste 0 -- -- 94
2021-02-15 05:00:00 6.3 6 Este 18 Sudeste 0 -- -- 92
2021-02-15 04:00:00 6.5 5 Este 14 Este 0 -- -- 92
2021-02-15 03:00:00 6.5 5 Este 15 Este 0 -- -- 91
2021-02-15 02:00:00 7.2 6 Este 22 Sudeste 0 -- -- 89
2021-02-15 01:00:00 7.3 8 Este 22 Sudeste 0 -- -- 88
2021-02-15 00:00:00 7.3 7 Sudeste 22 Este 0 -- -- 88
2021-02-14 23:00:00 7 8 Este 17 Sudeste 0 -- -- 90
2021-02-14 22:00:00 7.1 6 Este 18 Este 0 -- -- 88
2021-02-14 21:00:00 7.7 8 Este 22 Este 0 -- -- 83
2021-02-14 20:00:00 8.8 7 Este 17 Sudeste 0 -- -- 78
2021-02-14 19:00:00 10.7 8 Sudeste 21 Sudeste 0 -- -- 71
2021-02-14 18:00:00 14.4 11 Sudeste 24 Sudeste 0 -- -- 52
2021-02-14 17:00:00 15.3 13 Sudeste 25 Sudeste 0 -- -- 48
2021-02-14 16:00:00 15 12 Sudeste 26 Sudeste 0 -- -- 50
2021-02-14 15:00:00 14.4 13 Sudeste 24 Sudeste 0 -- -- 52
2021-02-14 14:00:00 13.7 10 Sudeste 25 Sudeste 0 -- -- 56
2021-02-14 13:00:00 12.6 12 Sudeste 29 Sudeste 0 -- -- 60
2021-02-14 12:00:00 11.6 10 Sudeste 24 Sudeste 0 -- -- 65
2021-02-14 11:00:00 8.6 6 Sudeste 15 Este 0 -- -- 77
2021-02-14 10:00:00 5.2 7 Este 14 Este 0 -- -- 85
2021-02-14 09:00:00 3.5 5 Este 9 Este 0 -- -- 91
2021-02-14 08:00:00 3.2 5 Nordeste 9 Nordeste 0 -- -- 91
2021-02-14 07:00:00 2.9 6 Este 9 Nordeste 0 -- -- 92
2021-02-14 06:00:00 2.9 3 Este 6 Nordeste 0 -- -- 91
2021-02-14 05:00:00 3.8 2 Norte 5 Nordeste 0 -- -- 88
2021-02-14 04:00:00 3.9 3 Norte 9 Nordeste 0 -- -- 88
2021-02-14 03:00:00 5.9 4 Nordeste 16 Norte 0 -- -- 81
2021-02-14 02:00:00 6.4 5 Nordeste 14 Norte 0 -- -- 78
2021-02-14 01:00:00 6.3 4 Nordeste 12 Norte 0 -- -- 80
2021-02-14 00:00:00 6.1 5 Norte 10 Norte 0 -- -- 84
2021-02-13 23:00:00 6.6 4 Norte 12 Norte 0 -- -- 80
2021-02-13 22:00:00 7.8 7 Noroeste 12 Noroeste 0 -- -- 74
2021-02-13 21:00:00 7.3 4 Norte 8 Oeste 0 -- -- 78
2021-02-13 20:00:00 7.9 3 Noroeste 10 Noroeste 0 -- -- 74
2021-02-13 19:00:00 9.7 6 Noroeste 17 Noroeste 0 -- -- 65
2021-02-13 18:00:00 13 10 Noroeste 25 Oeste 0 -- -- 52
2021-02-13 17:00:00 14 13 Noroeste 24 Noroeste 0 -- -- 53
2021-02-13 16:00:00 14 13 Noroeste 26 Oeste 0 -- -- 55
2021-02-13 15:00:00 13.5 15 Noroeste 27 Noroeste 0 -- -- 57
2021-02-13 14:00:00 11.3 18 Oeste 28 Oeste 0 -- -- 67
2021-02-13 13:00:00 11.2 18 Oeste 27 Oeste 0 -- -- 68
2021-02-13 08:00:00 -- -- -- -- -- -- -- -- --
2021-02-13 07:00:00 2.5 7 Oeste 13 Oeste 0 -- -- 98
2021-02-13 06:00:00 2.6 0 Calma 5 Oeste 0 -- -- 93
2021-02-13 05:00:00 2.8 0 Calma 6 Oeste 0 -- -- 92
2021-02-13 04:00:00 3.6 3 Oeste 10 Norte 0 -- -- 88
2021-02-13 03:00:00 4.9 5 Noroeste 20 Noroeste 0 -- -- 86
2021-02-13 02:00:00 4.6 8 Oeste 21 Noroeste 0 -- -- 87
2021-02-13 01:00:00 6.6 13 Noroeste 23 Noroeste 0 -- -- 80
2021-02-13 00:00:00 7 10 Noroeste 24 Noroeste 0 -- -- 79
2021-02-12 23:00:00 6.9 9 Noroeste 22 Noroeste 0 -- -- 80
2021-02-12 22:00:00 7.4 13 Noroeste 23 Noroeste 0 -- -- 78
2021-02-12 21:00:00 7.7 10 Noroeste 20 Noroeste 0 -- -- 78
2021-02-12 20:00:00 8.7 6 Noroeste 30 Noroeste 0 -- -- 75
2021-02-12 19:00:00 9.9 17 Noroeste 28 Oeste 0 -- -- 70
2021-02-12 18:00:00 11.9 15 Noroeste 37 Noroeste 0 -- -- 66
2021-02-12 17:00:00 12.7 19 Noroeste 38 Oeste 0 -- -- 65
2021-02-12 16:00:00 12.3 23 Noroeste 39 Noroeste 0 -- -- 66
2021-02-12 15:00:00 12 28 Noroeste 42 Noroeste 0 -- -- 69
2021-02-12 14:00:00 12.2 29 Noroeste 43 Oeste 0 -- -- 66
2021-02-12 13:00:00 11.7 26 Oeste 41 Oeste 0 -- -- 77
2021-02-12 12:00:00 10.8 25 Noroeste 44 Noroeste 0 -- -- 83
2021-02-12 11:00:00 10.7 24 Noroeste 41 Noroeste 0 -- -- 85
2021-02-12 10:00:00 8.5 14 Oeste 40 Oeste 0.4 -- -- 97
2021-02-12 09:00:00 9.4 22 Oeste 36 Oeste 0 -- -- 98
2021-02-12 08:00:00 9.4 14 Oeste 26 Oeste 0 -- -- 98
2021-02-12 07:00:00 9.5 12 Oeste 28 Oeste 0 -- -- 97
2021-02-12 06:00:00 9.6 14 Oeste 28 Oeste 0 -- -- 98
2021-02-12 05:00:00 9.9 15 Oeste 27 Oeste 0 -- -- 98
2021-02-12 04:00:00 10 12 Oeste 18 Oeste 0 -- -- 99
2021-02-12 03:00:00 9.8 6 Oeste 10 Oeste 0 -- -- 98
2021-02-12 02:00:00 9.8 7 Oeste 11 Oeste 0 -- -- 97
2021-02-12 01:00:00 10 5 Oeste 8 Oeste 0 -- -- 96
2021-02-12 00:00:00 10 3 Oeste 5 Sudoeste 0 -- -- 95
2021-02-11 23:00:00 10 0 Calma 5 Sudoeste 0 -- -- 94
2021-02-11 22:00:00 10.3 4 Sudoeste 7 Sudoeste 0 -- -- 92
2021-02-11 21:00:00 10.7 6 Noroeste 11 Noroeste 0 -- -- 89
2021-02-11 20:00:00 11.3 5 Norte 10 Noroeste 0 -- -- 86
2021-02-11 19:00:00 11.8 4 Oeste 13 Oeste 0 -- -- 85
2021-02-11 18:00:00 12.5 8 Oeste 20 Oeste 0 -- -- 83
2021-02-11 17:00:00 13.7 13 Oeste 21 Oeste 0 -- -- 78
2021-02-11 16:00:00 12.7 10 Oeste 21 Oeste 0 -- -- 84
2021-02-11 15:00:00 11.7 14 Oeste 21 Oeste 0 -- -- 90
2021-02-11 14:00:00 10.9 9 Oeste 19 Oeste 0 -- -- 95
2021-02-11 13:00:00 10.3 13 Oeste 22 Oeste 0 -- -- 98
2021-02-11 12:00:00 9.7 10 Oeste 20 Oeste 0 -- -- 100
2021-02-11 11:00:00 8.9 14 Oeste 22 Oeste 0 -- -- 100
2021-02-11 10:00:00 7.9 11 Oeste 17 Oeste 0 -- -- 99
2021-02-11 09:00:00 7.1 6 Oeste 12 Oeste 0 -- -- 99
2021-02-11 08:00:00 6.5 7 Oeste 13 Noroeste 0 -- -- 99
2021-02-11 07:00:00 5.9 0 Calma 13 Oeste 0 -- -- 98
2021-02-11 06:00:00 5.8 5 Sudoeste 8 Oeste 0 -- -- 98
2021-02-11 05:00:00 5.8 2 Noroeste 10 Oeste 0 -- -- 98
2021-02-11 04:00:00 5.5 7 Oeste 13 Noroeste 0 -- -- 98
2021-02-11 03:00:00 4.7 7 Oeste 13 Oeste 0 -- -- 98
2021-02-11 02:00:00 3.9 10 Oeste 17 Oeste 0 -- -- 96
2021-02-11 01:00:00 4.8 10 Oeste 17 Oeste 0 -- -- 93
2021-02-11 00:00:00 5.1 11 Oeste 17 Oeste 0 -- -- 92
2021-02-10 23:00:00 4.9 7 Oeste 12 Oeste 0 -- -- 90
2021-02-10 22:00:00 5.7 8 Oeste 13 Oeste 0 -- -- 85
2021-02-10 21:00:00 6.9 9 Oeste 14 Oeste 0 -- -- 82
2021-02-10 20:00:00 7.4 2 Noroeste 12 Noroeste 0 -- -- 75
2021-02-10 19:00:00 8.9 8 Noroeste 15 Noroeste 0 -- -- 67
2021-02-10 18:00:00 11.9 11 Noroeste 32 Oeste 0 -- -- 58
2021-02-10 17:00:00 12.5 24 Oeste 40 Oeste 0 -- -- 57
2021-02-10 16:00:00 12.4 24 Oeste 41 Oeste 0 -- -- 59
2021-02-10 15:00:00 11.8 31 Oeste 47 Oeste 0 -- -- 59
2021-02-10 14:00:00 11.6 27 Oeste 40 Oeste 0 -- -- 62
2021-02-10 13:00:00 10.2 22 Noroeste 36 Noroeste 0 -- -- 69
2021-02-10 12:00:00 9.6 27 Noroeste 46 Oeste 0 -- -- 78
2021-02-10 11:00:00 8.5 24 Noroeste 44 Noroeste 0 -- -- 77
2021-02-10 10:00:00 7.1 15 Oeste 30 Oeste 0 -- -- 91
2021-02-10 09:00:00 6.5 21 Oeste 49 Noroeste 0 -- -- 94
2021-02-10 08:00:00 6.5 28 Oeste 51 Oeste 0 -- -- 92
2021-02-10 07:00:00 6.5 35 Oeste 56 Oeste 0 -- -- 93
2021-02-10 06:00:00 6.4 37 Oeste 53 Oeste 0 -- -- 91
2021-02-10 05:00:00 6.2 33 Oeste 56 Oeste 0 -- -- 94
2021-02-10 04:00:00 6.5 36 Oeste 54 Oeste 0 -- -- 92
2021-02-10 03:00:00 6.6 27 Oeste 41 Oeste 0 -- -- 95
2021-02-10 02:00:00 6.6 24 Oeste 33 Oeste 0 -- -- 93
2021-02-10 01:00:00 6.2 21 Oeste 31 Oeste 0 -- -- 96
2021-02-10 00:00:00 6.2 20 Oeste 30 Oeste 0 -- -- 96
2021-02-09 23:00:00 6.4 20 Oeste 33 Oeste 0 -- -- 96
2021-02-09 22:00:00 7.1 19 Oeste 39 Oeste 0 -- -- 96
2021-02-09 21:00:00 7.3 26 Oeste 44 Oeste 0 -- -- 96
2021-02-09 20:00:00 7 19 Oeste 31 Oeste 0 -- -- 96
2021-02-09 19:00:00 6.9 17 Oeste 31 Noroeste 0 -- -- 97
2021-02-09 18:00:00 6.7 18 Noroeste 55 Oeste 0.2 -- -- 97
2021-02-09 17:00:00 8.6 31 Sudoeste 52 Sudoeste 0 -- -- 96
2021-02-09 16:00:00 8.6 26 Sudoeste 56 Sudoeste 0.4 -- -- 96
2021-02-09 15:00:00 9.7 35 Sudoeste 63 Oeste 0 -- -- 86
2021-02-09 14:00:00 9.5 30 Sudoeste 54 Oeste 0 -- -- 84
2021-02-09 13:00:00 8.4 31 Sudoeste 48 Sudoeste 0 -- -- 84
2021-02-09 12:00:00 8.2 28 Sudoeste 47 Oeste 0 -- -- 85
2021-02-09 11:00:00 7 17 Sudoeste 35 Oeste 0 -- -- 93
2021-02-09 10:00:00 6.5 16 Oeste 26 Sudoeste 0 -- -- 94
2021-02-09 09:00:00 5.8 16 Sudoeste 30 Oeste 0 -- -- 98
2021-02-09 08:00:00 5.3 16 Sudoeste 30 Oeste 0 -- -- 98
2021-02-09 07:00:00 5.4 17 Oeste 35 Oeste 0 -- -- 96
2021-02-09 06:00:00 5.7 19 Oeste 35 Oeste 0 -- -- 95
2021-02-09 05:00:00 5.6 20 Oeste 33 Oeste 0 -- -- 93
2021-02-09 04:00:00 5.5 23 Oeste 39 Oeste 0 -- -- 95
2021-02-09 03:00:00 5.5 27 Oeste 40 Oeste 0 -- -- 95
2021-02-09 02:00:00 4.9 22 Oeste 36 Oeste 0 -- -- 95
2021-02-09 01:00:00 4.7 23 Oeste 33 Oeste 0 -- -- 96
2021-02-09 00:00:00 4.8 23 Oeste 34 Oeste 0 -- -- 94
2021-02-08 23:00:00 5.1 14 Oeste 30 Sudoeste 0 -- -- 93
2021-02-08 22:00:00 5.4 19 Oeste 35 Oeste 0 -- -- 93
2021-02-08 21:00:00 5.6 24 Oeste 40 Oeste 0 -- -- 93
2021-02-08 20:00:00 5.9 20 Oeste 44 Oeste 0 -- -- 89
2021-02-08 19:00:00 6.9 26 Oeste 45 Oeste 0 -- -- 88
2021-02-08 18:00:00 8 24 Oeste 41 Oeste 0 -- -- 75
2021-02-08 17:00:00 8.1 25 Oeste 44 Oeste 0 -- -- 85
2021-02-08 16:00:00 7.5 25 Oeste 49 Oeste 0 -- -- 88
2021-02-08 15:00:00 6.2 23 Oeste 44 Oeste 0 -- -- 93
2021-02-08 14:00:00 6.1 26 Oeste 52 Oeste 0 -- -- 93
2021-02-08 13:00:00 7.3 28 Oeste 50 Oeste 0 -- -- 85
2021-02-08 12:00:00 7.4 28 Oeste 44 Oeste 0 -- -- 89
2021-02-08 11:00:00 7.1 26 Oeste 45 Oeste 0 -- -- 88
2021-02-08 10:00:00 6.4 26 Oeste 44 Oeste 0 -- -- 95
2021-02-08 09:00:00 6.4 31 Oeste 53 Oeste 0 -- -- 96
2021-02-08 08:00:00 6.7 28 Oeste 66 Oeste 0 -- -- 96
2021-02-08 07:00:00 6.6 23 Sudoeste 40 Sudoeste 0 -- -- 95
2021-02-08 06:00:00 6.1 19 Sudoeste 36 Sudoeste 0 -- -- 95
2021-02-08 05:00:00 5.6 21 Oeste 38 Oeste 0 -- -- 97
2021-02-08 04:00:00 5.1 16 Sudoeste 32 Sudoeste 0 -- -- 94
2021-02-08 03:00:00 4.7 15 Sudoeste 33 Oeste 0 -- -- 97
2021-02-08 02:00:00 4.7 21 Oeste 39 Sudoeste 0 -- -- 97
2021-02-08 01:00:00 4.7 30 Oeste 45 Oeste 0 -- -- 97
2021-02-08 00:00:00 4.4 26 Oeste 41 Oeste 0 -- -- 97
2021-02-07 23:00:00 4.3 27 Oeste 42 Oeste 0 -- -- 96
2021-02-07 22:00:00 4.6 29 Oeste 43 Oeste 0 -- -- 93
2021-02-07 21:00:00 5.5 22 Oeste 39 Oeste 0 -- -- 88
2021-02-07 20:00:00 6.3 26 Oeste 44 Oeste 0 -- -- 84
2021-02-07 19:00:00 6.9 25 Oeste 45 Oeste 0 -- -- 83
2021-02-07 18:00:00 7.6 29 Oeste 44 Oeste 0 -- -- 80
2021-02-07 17:00:00 8.6 19 Oeste 33 Noroeste 0 -- -- 73
2021-02-07 16:00:00 8.5 13 Noroeste 36 Oeste 0 -- -- 71
2021-02-07 15:00:00 8.4 20 Oeste 37 Noroeste 0 -- -- 74
2021-02-07 14:00:00 7.8 17 Oeste 30 Oeste 0 -- -- 78
2021-02-07 13:00:00 7.7 12 Noroeste 23 Noroeste 0 -- -- 75
2021-02-07 12:00:00 7.2 11 Noroeste 22 Norte 0 -- -- 70
2021-02-07 11:00:00 6 12 Norte 24 Norte 0 -- -- 77
2021-02-07 10:00:00 5.3 7 Noroeste 15 Noroeste 0 -- -- 85
2021-02-07 09:00:00 4.5 5 Noroeste 18 Norte 0 -- -- 88
2021-02-07 08:00:00 4.9 7 Noroeste 16 Noroeste 0 -- -- 89
2021-02-07 07:00:00 5 8 Noroeste 16 Noroeste 0 -- -- 93
2021-02-07 06:00:00 5.4 7 Noroeste 17 Noroeste 0 -- -- 95
2021-02-07 05:00:00 5.6 13 Oeste 26 Oeste 0 -- -- 97
2021-02-07 04:00:00 6 13 Oeste 23 Noroeste 0 -- -- 97
2021-02-07 03:00:00 6.4 14 Oeste 26 Oeste 0 -- -- 98
2021-02-07 02:00:00 6.3 15 Oeste 27 Oeste 0 -- -- 99
2021-02-07 01:00:00 6.4 18 Oeste 31 Sudoeste 0 -- -- 97
2021-02-07 00:00:00 6.5 14 Oeste 22 Oeste 0 -- -- 97
2021-02-06 23:00:00 6.6 6 Oeste 17 Oeste 0 -- -- 97
2021-02-06 22:00:00 6.8 10 Oeste 21 Oeste 0 -- -- 94
2021-02-06 21:00:00 6.9 9 Oeste 14 Oeste 0 -- -- 95
2021-02-06 20:00:00 6.8 11 Oeste 32 Oeste 0 -- -- 93
2021-02-06 19:00:00 7.2 18 Oeste 28 Oeste 0 -- -- 90
2021-02-06 18:00:00 7.8 19 Oeste 28 Oeste 0 -- -- 88
2021-02-06 17:00:00 8 17 Oeste 28 Oeste 0 -- -- 86
2021-02-06 16:00:00 7.7 21 Oeste 34 Oeste 0 -- -- 86
2021-02-06 15:00:00 8.2 17 Sudoeste 34 Oeste 0 -- -- 82
2021-02-06 14:00:00 8 19 Oeste 35 Oeste 0 -- -- 85
2021-02-06 13:00:00 7.8 18 Sudoeste 39 Sudoeste 0 -- -- 84
2021-02-06 12:00:00 8.3 17 Sudoeste 31 Sudoeste 0 -- -- 86
2021-02-06 11:00:00 8.3 14 Sudoeste 25 Sudoeste 0 -- -- 88
2021-02-06 10:00:00 7.2 13 Sudoeste 19 Sudoeste 0 -- -- 93
2021-02-06 09:00:00 6.8 3 Sudoeste 9 Sudoeste 0 -- -- 96
2021-02-06 08:00:00 6.2 0 Calma 5 Sur 0 -- -- 97
2021-02-06 07:00:00 6.2 0 Calma 6 Sur 0 -- -- 96
2021-02-06 06:00:00 6.7 3 Sudoeste 9 Sur 0 -- -- 97
2021-02-06 05:00:00 7 4 Sur 10 Sur 0 -- -- 98
2021-02-06 04:00:00 7.4 5 Sur 15 Sudoeste 0 -- -- 97
2021-02-06 03:00:00 7.6 5 Sur 19 Sudeste 0 -- -- 95
2021-02-06 02:00:00 7.9 8 Sudeste 18 Sudeste 0 -- -- 94
2021-02-06 01:00:00 7.7 2 Sudeste 14 Este 0 -- -- 95
2021-02-06 00:00:00 7.6 5 Este 13 Este 0 -- -- 96
2021-02-05 23:00:00 7.8 6 Este 23 Sur 0.2 -- -- 94
2021-02-05 22:00:00 8 2 Sur 21 Sudeste 1 -- -- 92
2021-02-05 21:00:00 7.9 9 Sudeste 24 Este 0 -- -- 90
2021-02-05 20:00:00 7.9 8 Este 29 Este 0 -- -- 89
2021-02-05 19:00:00 9 11 Este 31 Este 0 -- -- 86
2021-02-05 18:00:00 11.3 15 Sudeste 36 Sudeste 0 -- -- 77
2021-02-05 17:00:00 13.4 15 Sudeste 31 Sudeste 0 -- -- 69
2021-02-05 16:00:00 14.9 13 Sudeste 30 Este 0 -- -- 65
2021-02-05 15:00:00 14.3 12 Sudeste 29 Sudeste 0 -- -- 68
2021-02-05 14:00:00 13.5 13 Sudeste 31 Sudeste 0 -- -- 70
2021-02-05 13:00:00 12.5 15 Sudeste 37 Sudeste 0 -- -- 72
2021-02-05 12:00:00 11.6 12 Sudeste 31 Sudeste 0 -- -- 75
2021-02-05 11:00:00 9.6 12 Sudeste 29 Sudeste 0 -- -- 84
2021-02-05 10:00:00 7.7 10 Este 23 Sudeste 0 -- -- 91
2021-02-05 09:00:00 6.4 10 Este 22 Este 0 -- -- 93
2021-02-05 08:00:00 6.3 6 Norte 26 Sudeste 0 -- -- 89
2021-02-05 07:00:00 7.7 12 Sudeste 27 Sudeste 0 -- -- 83
2021-02-05 06:00:00 8.2 11 Sudeste 27 Este 0 -- -- 81
2021-02-05 05:00:00 8.8 10 Sudeste 23 Este 0 -- -- 78
2021-02-05 04:00:00 8.8 10 Este 18 Nordeste 0 -- -- 82
2021-02-05 03:00:00 8.2 8 Este 17 Nordeste 0 -- -- 84
2021-02-05 02:00:00 7.9 9 Este 14 Este 0 -- -- 86
2021-02-05 01:00:00 8.3 10 Nordeste 20 Nordeste 0 -- -- 86
2021-02-05 00:00:00 7.6 5 Nordeste 11 Este 0 -- -- 89
2021-02-04 23:00:00 8.4 6 Este 15 Nordeste 0 -- -- 87
2021-02-04 22:00:00 9 3 Nordeste 13 Norte 0 -- -- 81
2021-02-04 21:00:00 9.5 3 Norte 8 Sudeste 0 -- -- 79
2021-02-04 20:00:00 10.5 0 Calma 8 Norte 0 -- -- 75
2021-02-04 19:00:00 11.8 2 Nordeste 10 Norte 0 -- -- 70
2021-02-04 18:00:00 13.2 6 Noroeste 18 Noroeste 0 -- -- 68
2021-02-04 17:00:00 16 9 Oeste 22 Oeste 0 -- -- 53
2021-02-04 16:00:00 17 12 Sudoeste 23 Oeste 0 -- -- 46
2021-02-04 15:00:00 16.4 8 Sudeste 32 Sudeste 0 -- -- 58
2021-02-04 14:00:00 15.2 16 Sudeste 39 Sudeste 0 -- -- 58
2021-02-04 13:00:00 14.5 12 Sudeste 32 Sudeste 0 -- -- 60
2021-02-04 12:00:00 12.6 12 Sudeste 24 Sudeste 0 -- -- 74
2021-02-04 11:00:00 8.4 6 Este 13 Este 0 -- -- 94
2021-02-04 10:00:00 6.5 5 Este 12 Este 0 -- -- 97
2021-02-04 09:00:00 5.8 5 Este 10 Nordeste 0 -- -- 97
2021-02-04 08:00:00 5.9 0 Calma 6 Este 0 -- -- 97
2021-02-04 07:00:00 6 2 Este 5 Oeste 0 -- -- 97
2021-02-04 06:00:00 6.3 3 Oeste 8 Sur 0 -- -- 97
2021-02-04 05:00:00 4.7 0 Calma 2 Nordeste 0 -- -- 96
2021-02-04 04:00:00 5.4 0 Calma 3 Nordeste 0 -- -- 96
2021-02-04 03:00:00 6.1 0 Calma 4 Nordeste 0 -- -- 96
2021-02-04 02:00:00 6.3 0 Calma 5 Este 0 -- -- 96
2021-02-04 01:00:00 6.6 0 Calma 4 Nordeste 0 -- -- 96
2021-02-04 00:00:00 6.7 2 Nordeste 5 Norte 0 -- -- 95
2021-02-03 23:00:00 6.7 2 Nordeste 6 Nordeste 0 -- -- 95
2021-02-03 22:00:00 6.7 2 Nordeste 6 Nordeste 0 -- -- 93
2021-02-03 21:00:00 7.4 0 Calma 3 Nordeste 0 -- -- 91
2021-02-03 20:00:00 8.7 0 Calma 4 Norte 0 -- -- 86
2021-02-03 19:00:00 10.2 2 Norte 10 Noroeste 0 -- -- 84
2021-02-03 18:00:00 11.5 7 Noroeste 18 Oeste 0 -- -- 79
2021-02-03 17:00:00 12.7 12 Oeste 23 Oeste 0 -- -- 74
2021-02-03 16:00:00 13.1 10 Oeste 22 Oeste 0 -- -- 70
2021-02-03 15:00:00 13.2 11 Oeste 22 Oeste 0 -- -- 71
2021-02-03 14:00:00 12.5 13 Oeste 24 Oeste 0 -- -- 73
2021-02-03 13:00:00 11.2 15 Oeste 23 Oeste 0 -- -- 77
2021-02-03 12:00:00 9.6 10 Sudoeste 21 Oeste 0 -- -- 81
2021-02-03 11:00:00 8.8 11 Sudoeste 19 Sudoeste 0 -- -- 84
2021-02-03 10:00:00 8.2 11 Sudoeste 16 Sudoeste 0 -- -- 87
2021-02-03 09:00:00 7.7 8 Oeste 14 Oeste 0 -- -- 91
2021-02-03 08:00:00 7.6 6 Sudoeste 18 Oeste 0 -- -- 92
2021-02-03 07:00:00 7.5 10 Oeste 17 Oeste 0 -- -- 92
2021-02-03 06:00:00 7.3 14 Oeste 20 Oeste 0 -- -- 92
2021-02-03 05:00:00 7.4 10 Oeste 17 Oeste 0 -- -- 91
2021-02-03 04:00:00 7.6 6 Sudoeste 12 Oeste 0 -- -- 91
2021-02-03 03:00:00 7.6 5 Oeste 15 Oeste 0 -- -- 91
2021-02-03 02:00:00 7.8 9 Oeste 19 Oeste 0 -- -- 90
2021-02-03 01:00:00 7.9 13 Oeste 24 Oeste 0 -- -- 88
2021-02-03 00:00:00 8.1 16 Oeste 27 Oeste 0 -- -- 87
2021-02-02 23:00:00 8.7 15 Oeste 23 Oeste 0 -- -- 88
2021-02-02 22:00:00 9.1 10 Oeste 19 Oeste 0 -- -- 86
2021-02-02 21:00:00 9.1 5 Oeste 11 Noroeste 0 -- -- 86
2021-02-02 20:00:00 9 5 Noroeste 9 Noroeste 0 -- -- 84
2021-02-02 19:00:00 9.7 5 Noroeste 17 Noroeste 0 -- -- 82
2021-02-02 18:00:00 11.6 13 Noroeste 23 Oeste 0 -- -- 73
2021-02-02 17:00:00 12.4 18 Oeste 31 Noroeste 0 -- -- 71
2021-02-02 16:00:00 12.2 17 Oeste 27 Oeste 0 -- -- 73
2021-02-02 15:00:00 11.9 17 Oeste 30 Oeste 0 -- -- 77
2021-02-02 14:00:00 11.9 16 Oeste 31 Oeste 0 -- -- 77
2021-02-02 13:00:00 11.8 16 Oeste 29 Oeste 0 -- -- 83
2021-02-02 12:00:00 9.7 14 Oeste 24 Oeste 0 -- -- 100
2021-02-02 11:00:00 7.9 15 Oeste 30 Oeste 0 -- -- 100
2021-02-02 10:00:00 7.5 19 Oeste 28 Oeste 0 -- -- 100
2021-02-02 09:00:00 7.1 18 Oeste 28 Oeste 0 -- -- 100
2021-02-02 08:00:00 6.9 12 Oeste 23 Oeste 0 -- -- 100
2021-02-02 07:00:00 6.8 15 Oeste 25 Oeste 0 -- -- 99
2021-02-02 06:00:00 6.6 16 Oeste 31 Oeste 0 -- -- 100
2021-02-02 05:00:00 6.2 19 Oeste 29 Oeste 0 -- -- 99
2021-02-02 04:00:00 6.2 17 Oeste 28 Oeste 0 -- -- 100
2021-02-02 03:00:00 6.1 18 Oeste 28 Oeste 0 -- -- 100
2021-02-02 02:00:00 6.2 18 Oeste 32 Oeste 0 -- -- 99
2021-02-02 01:00:00 6.5 20 Oeste 32 Oeste 0 -- -- 99
2021-02-02 00:00:00 6.7 26 Oeste 39 Oeste 0 -- -- 98
2021-02-01 23:00:00 6.8 20 Oeste 30 Oeste 0 -- -- 96
2021-02-01 22:00:00 7.3 22 Oeste 39 Oeste 0 -- -- 94
2021-02-01 21:00:00 8.4 28 Oeste 42 Oeste 0 -- -- 91
2021-02-01 20:00:00 9.2 25 Oeste 39 Oeste 0 -- -- 87
2021-02-01 19:00:00 10.4 23 Oeste 42 Oeste 0 -- -- 80
2021-02-01 18:00:00 11.9 23 Oeste 42 Oeste 0 -- -- 76
2021-02-01 17:00:00 12.3 28 Oeste 49 Oeste 0 -- -- 78
2021-02-01 16:00:00 12.7 33 Oeste 48 Oeste 0 -- -- 77
2021-02-01 15:00:00 13.3 32 Oeste 50 Oeste 0 -- -- 75
2021-02-01 14:00:00 11.6 31 Oeste 46 Oeste 0 -- -- 80
2021-02-01 13:00:00 11.4 28 Oeste 44 Oeste 0 -- -- 86
2021-02-01 12:00:00 10.5 28 Oeste 44 Oeste 0 -- -- 86
2021-02-01 11:00:00 9 29 Oeste 44 Oeste 0 -- -- 92
2021-02-01 10:00:00 7.6 22 Oeste 36 Oeste 0 -- -- 98
2021-02-01 09:00:00 7.3 21 Oeste 43 Oeste 0 -- -- 98
2021-02-01 08:00:00 7.5 30 Oeste 45 Oeste 0 -- -- 98
2021-02-01 07:00:00 7.7 30 Oeste 49 Oeste 0 -- -- 99
2021-02-01 06:00:00 8 27 Oeste 43 Oeste 0 -- -- 99
2021-02-01 05:00:00 8.4 26 Oeste 41 Oeste 0 -- -- 99
2021-02-01 04:00:00 8.6 26 Oeste 39 Oeste 0 -- -- 100
2021-02-01 03:00:00 8.7 18 Oeste 32 Oeste 0 -- -- 100
2021-02-01 02:00:00 9.3 17 Oeste 27 Oeste 0 -- -- 100
2021-02-01 01:00:00 9.9 16 Oeste 33 Oeste 0 -- -- 100
2021-02-01 00:00:00 10.1 22 Oeste 39 Oeste 0 -- -- 100